Airfield :
LOGIN :

Register | Disclaimer

   EN    FR    IT 

 










Legend :    VFR   Marginal VFR   IFR   Intensive IFR   Very Intensive IFR
Visi :
Ceiling :
>= 8 km
>= 3000ft
5 to 8 km
1000 to 3000 ft
1500m to 5 km
500 to 1000 ft
800 to 1500m
200 to 500 ft
< 800m
< 200 ft
Symbols :   Thunderstorms  Fog  Heavy snow  Heavy precipitations  Wind > 20 kt
SIGMETs :     Misc.  Thunderstorms  Icing  Turbulence  Mountain Waves  Volcanic Ashes







- Airport Elevation : 358 ft
- Download approach charts


EGTC - Cranfield

CURRENT METAR :
  • 201420Z 19008KT 150V230 9999 FEW049 26/13 Q1012

EXPIRED METARs :
  • 201350Z 22006KT 160V260 9999 FEW049 26/13 Q1013
  • 201320Z 22008KT CAVOK 25/13 Q1013
  • 201250Z 16008KT 100V210 CAVOK 26/13 Q1013
  • 201220Z 17008KT 140V240 CAVOK 26/11 Q1013
  • 201150Z 15007KT 110V190 CAVOK 26/11 Q1013

TAF TAF EGTC
Valid from the 20 at 15:00 until the 20 at 18:00 UTC


201354Z 2015/2018 22007KT 9999 FEW045
PROB30
TEMPO 2015/2018 3000 +SHRA TSRA
No reported NOTAMs for that airfield.



MET'MAP, your aeronautical weather chart ! - Copyright ORBIFLY December 2007 - Disclaimer

ORBIFLY MET'MAP TEAM :

Programming & Development : Alexandra Zaïnal
Concept & Development : Baudouin d'Aumeries
Co-Development & Prog : Marc-Olivier Méhu
Technical & hardware support : Manuel Goepfert

Contact : metmap@orbifly.com




SOURCES & CREDITS :

   NOAA